Dades meteomassalio
Diari Summary for Setembre 29, 2017 Units:  Metric    English   Both
« Previous Day
Next Day »
Diari Semanal Mensual Anual Personalitzat
  Maxima: Minima: Mijana:
Temperatura: -17.8 °C -13.2 °C -8.7 °C
Rosada: -17.8 °C -14 °C -11.9 °C
Humitat: Humidity % 36 % 71 %
Velocitat del vent: 0 km/h 0 km/h 2.6 km/h
Racha vent: 0 km/h - -
Vent:- - South
Pressio: 0 hPa 34567.7 hPa -
Pluja: 0 mm    
Historical Graphs
 
 
Tabular Data for Setembre 29, 2017
Time Temperature Dew Point Pressure Wind Wind Speed Wind Gust Humidity Rainfall Rate (Hourly) solar Conditions
-17.8 °C -17.8 °C 0 hPa Calm     Humidity % 0 mm SolarRadiationWatts/m^2 W/m2 Conditions
00:02 -10.7 °C -12.6 °C 34703.1 hPa Calm     80 % 0 mm 0.0 W/m2 CLR
00:07 -10.7 °C -12.6 °C 34703.1 hPa Calm     80 % 0 mm 0.0 W/m2 CLR
00:08 -10.7 °C -12.6 °C 34703.1 hPa Calm     80 % 0 mm 0.0 W/m2 CLR
00:13 -10.7 °C -12.4 °C 34703.1 hPa Calm     81 % 0 mm 0.0 W/m2 CLR
00:18 -10.7 °C -12.3 °C 34716.7 hPa Calm     82 % 0 mm 0.0 W/m2 CLR
00:23 -10.7 °C -12.4 °C 34716.7 hPa Calm     81 % 0 mm 0.0 W/m2 CLR
00:28 -10.7 °C -12.3 °C 34716.7 hPa Calm     82 % 0 mm 0.0 W/m2 CLR
00:33 -10.7 °C -12.3 °C 34716.7 hPa Calm     82 % 0 mm 0.0 W/m2 CLR
00:38 -10.7 °C -12.3 °C 34716.7 hPa Calm     82 % 0 mm 0.0 W/m2 CLR
00:43 -11 °C -12.7 °C 34716.7 hPa Calm     82 % 0 mm 0.0 W/m2 CLR
00:48 -11 °C -12.6 °C 34703.1 hPa Calm     83 % 0 mm 0.0 W/m2 CLR
00:53 -11 °C -12.6 °C 34703.1 hPa Calm     83 % 0 mm 0.0 W/m2 CLR
00:58 -11 °C -12.4 °C 34703.1 hPa Calm     84 % 0 mm 0.0 W/m2 CLR
01:03 -11 °C -12.3 °C 34703.1 hPa Calm     85 % 0 mm 0.0 W/m2 CLR
01:08 -11.3 °C -12.7 °C 34703.1 hPa Calm     84 % 0 mm 0.0 W/m2 CLR
01:13 -11.3 °C -12.7 °C 34703.1 hPa Calm     84 % 0 mm 0.0 W/m2 CLR
01:18 -11.3 °C -12.7 °C 34703.1 hPa Calm     84 % 0 mm 0.0 W/m2 CLR
01:23 -11.6 °C -13.1 °C 34703.1 hPa Calm     84 % 0 mm 0.0 W/m2 CLR
01:28 -11.6 °C -13.1 °C 34703.1 hPa Calm     84 % 0 mm 0.0 W/m2 CLR
01:33 -11.6 °C -13.1 °C 34703.1 hPa Calm     84 % 0 mm 0.0 W/m2 CLR
01:38 -11.6 °C -12.9 °C 34703.1 hPa Calm     85 % 0 mm 0.0 W/m2 CLR
01:43 -11.6 °C -12.9 °C 34703.1 hPa Calm     85 % 0 mm 0.0 W/m2 CLR
01:48 -11.6 °C -12.9 °C 34703.1 hPa Calm     85 % 0 mm 0.0 W/m2 CLR
01:53 -11.9 °C -13.3 °C 34703.1 hPa Calm     85 % 0 mm 0.0 W/m2 CLR
01:58 -11.9 °C -13.2 °C 34703.1 hPa Calm     86 % 0 mm 0.0 W/m2 CLR
02:03 -11.9 °C -13.2 °C 34703.1 hPa Calm     86 % 0 mm 0.0 W/m2 CLR
02:08 -11.9 °C -13.2 °C 34703.1 hPa Calm     86 % 0 mm 0.0 W/m2 CLR
02:13 -11.9 °C -13.2 °C 34703.1 hPa Calm     86 % 0 mm 0.0 W/m2 CLR
02:18 -11.9 °C -13.2 °C 34703.1 hPa Calm     86 % 0 mm 0.0 W/m2 CLR
02:23 -11.9 °C -13.2 °C 34703.1 hPa Calm     86 % 0 mm 0.0 W/m2 CLR
02:28 -11.9 °C -13.1 °C 34703.1 hPa Calm     87 % 0 mm 0.0 W/m2 CLR
02:33 -11.9 °C -13.1 °C 34703.1 hPa Calm     87 % 0 mm 0.0 W/m2 CLR
02:38 -11.9 °C -13.1 °C 34703.1 hPa Calm     87 % 0 mm 0.0 W/m2 CLR
02:43 -11.9 °C -13.1 °C 34703.1 hPa Calm     87 % 0 mm 0.0 W/m2 CLR
02:48 -11.9 °C -13.1 °C 34703.1 hPa Calm     87 % 0 mm 0.0 W/m2 CLR
02:53 -12.2 °C -13.4 °C 34703.1 hPa Calm     87 % 0 mm 0.0 W/m2 CLR
02:58 -12.2 °C -13.4 °C 34703.1 hPa Calm     87 % 0 mm 0.0 W/m2 CLR
03:03 -12.2 °C -13.4 °C 34703.1 hPa Calm     87 % 0 mm 0.0 W/m2 CLR
03:08 -12.2 °C -13.3 °C 34703.1 hPa Calm     88 % 0 mm 0.0 W/m2 CLR
03:13 -12.2 °C -13.3 °C 34703.1 hPa Calm     88 % 0 mm 0.0 W/m2 CLR
03:18 -12.2 °C -13.3 °C 34703.1 hPa Calm     88 % 0 mm 0.0 W/m2 CLR
03:23 -12.2 °C -13.3 °C 34703.1 hPa Calm     88 % 0 mm 0.0 W/m2 CLR
03:28 -12.2 °C -13.3 °C 34703.1 hPa Calm     88 % 0 mm 0.0 W/m2 CLR
03:33 -12.2 °C -13.3 °C 34703.1 hPa Calm     88 % 0 mm 0.0 W/m2 CLR
03:38 -12.6 °C -13.6 °C 34703.1 hPa Calm     88 % 0 mm 0.0 W/m2 CLR
03:43 -12.6 °C -13.6 °C 34703.1 hPa Calm     88 % 0 mm 0.0 W/m2 CLR
03:48 -12.6 °C -13.6 °C 34703.1 hPa Calm     88 % 0 mm 0.0 W/m2 CLR
03:53 -12.6 °C -13.6 °C 34703.1 hPa Calm     88 % 0 mm 0.0 W/m2 CLR
03:58 -12.6 °C -13.5 °C 34693 hPa Calm     89 % 0 mm 0.0 W/m2 CLR
04:03 -12.6 °C -13.5 °C 34693 hPa Calm     89 % 0 mm 0.0 W/m2 CLR
04:08 -12.6 °C -13.5 °C 34693 hPa Calm     89 % 0 mm 0.0 W/m2 CLR
04:13 -12.6 °C -13.5 °C 34693 hPa Calm     89 % 0 mm 0.0 W/m2 CLR
04:18 -12.6 °C -13.5 °C 34693 hPa Calm     89 % 0 mm 0.0 W/m2 CLR
04:23 -12.6 °C -13.5 °C 34693 hPa Calm     89 % 0 mm 0.0 W/m2 CLR
04:28 -12.8 °C -13.8 °C 34693 hPa Calm     89 % 0 mm 0.0 W/m2 CLR
04:33 -12.8 °C -13.8 °C 34693 hPa Calm     89 % 0 mm 0.0 W/m2 CLR
04:38 -12.8 °C -13.8 °C 34693 hPa Calm     89 % 0 mm 0.0 W/m2 CLR
04:43 -12.8 °C -13.8 °C 34693 hPa Calm     89 % 0 mm 0.0 W/m2 CLR
04:48 -12.6 °C -13.4 °C 34693 hPa Calm     90 % 0 mm 0.0 W/m2 CLR
04:53 -12.6 °C -13.4 °C 34693 hPa Calm     90 % 0 mm 0.0 W/m2 CLR
04:58 -12.2 °C -13.1 °C 34693 hPa Calm     90 % 0 mm 0.0 W/m2 CLR
05:03 -12.6 °C -13.4 °C 34693 hPa Calm     90 % 0 mm 0.0 W/m2 CLR
05:08 -12.6 °C -13.4 °C 34682.8 hPa Calm     90 % 0 mm 0.0 W/m2 CLR
05:14 -12.6 °C -13.4 °C 34682.8 hPa Calm     90 % 0 mm 0.0 W/m2 CLR
05:19 -12.6 °C -13.4 °C 34682.8 hPa Calm     90 % 0 mm 0.0 W/m2 CLR
05:22 -12.6 °C -13.4 °C 34682.8 hPa Calm     90 % 0 mm 0.0 W/m2 CLR
05:24 -12.6 °C -13.4 °C 34682.8 hPa Calm     90 % 0 mm 0.0 W/m2 CLR
05:25 -12.8 °C -13.7 °C 34682.8 hPa Calm     90 % 0 mm 0.0 W/m2 CLR
05:28 -12.8 °C -13.7 °C 34682.8 hPa Calm     90 % 0 mm 0.0 W/m2 CLR
05:29 -12.8 °C -13.7 °C 34682.8 hPa Calm     90 % 0 mm 0.0 W/m2 CLR
05:33 -12.8 °C -13.7 °C 34682.8 hPa Calm     90 % 0 mm 0.0 W/m2 CLR
05:37 -12.8 °C -13.7 °C 34682.8 hPa Calm     90 % 0 mm 0.0 W/m2 CLR
05:42 -12.8 °C -13.7 °C 34682.8 hPa Calm     90 % 0 mm 0.0 W/m2 CLR
05:47 -12.8 °C -13.7 °C 34682.8 hPa Calm     90 % 0 mm 0.0 W/m2 CLR
05:52 -12.8 °C -13.7 °C 34693 hPa Calm     90 % 0 mm 0.0 W/m2 CLR
05:57 -12.6 °C -13.4 °C 34682.8 hPa Calm     90 % 0 mm 0.0 W/m2 CLR
06:02 -12.6 °C -13.4 °C 34693 hPa Calm     90 % 0 mm 0.0 W/m2 CLR
06:07 -12.6 °C -13.3 °C 34693 hPa Calm     91 % 0 mm 0.0 W/m2 CLR
06:12 -12.8 °C -13.6 °C 34693 hPa Calm     91 % 0 mm 0.0 W/m2 CLR
06:17 -12.8 °C -13.7 °C 34693 hPa Calm     90 % 0 mm 0.0 W/m2 CLR
06:22 -12.8 °C -13.6 °C 34693 hPa Calm     91 % 0 mm 0.0 W/m2 CLR
06:27 -12.8 °C -13.7 °C 34693 hPa Calm     90 % 0 mm 0.0 W/m2 CLR
06:32 -13.2 °C -13.9 °C 34693 hPa Calm     91 % 0 mm 0.0 W/m2 CLR
06:37 -13.2 °C -14 °C 34693 hPa Calm     90 % 0 mm 0.0 W/m2 CLR
06:42 -13.2 °C -14 °C 34693 hPa Calm     90 % 0 mm 0.0 W/m2 CLR
06:47 -13.2 °C -14 °C 34693 hPa Calm     90 % 0 mm 0.0 W/m2 CLR
06:52 -13.2 °C -14 °C 34693 hPa Calm     90 % 0 mm 0.0 W/m2 CLR
06:57 -13.2 °C -14 °C 34693 hPa Calm     90 % 0 mm 0.0 W/m2 CLR
07:02 -13.2 °C -13.9 °C 34693 hPa Calm     91 % 0 mm 0.0 W/m2 CLR
07:07 -13.2 °C -13.9 °C 34693 hPa Calm     91 % 0 mm 0.0 W/m2 CLR
07:12 -13.2 °C -13.9 °C 34693 hPa Calm     91 % 0 mm 0.0 W/m2 CLR
07:17 -13.2 °C -13.9 °C 34693 hPa Calm     91 % 0 mm 0.0 W/m2 CLR
07:22 -13.2 °C -13.9 °C 34693 hPa Calm     91 % 0 mm 0.0 W/m2 CLR
07:27 -13.2 °C -13.9 °C 34703.1 hPa Calm     91 % 0 mm 0.0 W/m2 CLR
07:32 -13.2 °C -13.9 °C 34703.1 hPa Calm     91 % 0 mm 0.0 W/m2 CLR
07:37 -13.2 °C -13.8 °C 34703.1 hPa Calm     92 % 0 mm 0.0 W/m2 CLR
07:42 -13.2 °C -13.9 °C 34703.1 hPa Calm     91 % 0 mm 0.0 W/m2 CLR
07:47 -13.2 °C -13.9 °C 34703.1 hPa Calm     91 % 0 mm 0.0 W/m2 OVC
07:52 -13.2 °C -13.9 °C 34703.1 hPa Calm     91 % 0 mm 0.0 W/m2 OVC
07:57 -13.2 °C -13.9 °C 34703.1 hPa Calm     91 % 0 mm 7.0 W/m2 OVC
08:02 -13.2 °C -13.9 °C 34703.1 hPa Calm     91 % 0 mm 9.0 W/m2 BKN
08:07 -13.2 °C -13.8 °C 34703.1 hPa Calm     92 % 0 mm 12.0 W/m2 BKN
08:12 -13.2 °C -13.8 °C 34703.1 hPa Calm     92 % 0 mm 16.0 W/m2 BKN
08:17 -13.2 °C -13.8 °C 34703.1 hPa Calm     92 % 0 mm 19.0 W/m2 BKN
08:22 -13.2 °C -13.8 °C 34716.7 hPa Calm     92 % 0 mm 26.0 W/m2 BKN
08:27 -13.2 °C -13.8 °C 34716.7 hPa Calm     92 % 0 mm 33.0 W/m2 BKN
08:32 -13.2 °C -13.8 °C 34716.7 hPa Calm     92 % 0 mm 46.0 W/m2 BKN
08:37 -13.2 °C -13.8 °C 34716.7 hPa Calm     92 % 0 mm 51.0 W/m2 SCT
08:42 -12.8 °C -13.5 °C 34716.7 hPa Calm     92 % 0 mm 62.0 W/m2 SCT
08:47 -12.8 °C -13.5 °C 34716.7 hPa Calm     92 % 0 mm 77.0 W/m2 FEW
08:52 -12.8 °C -13.6 °C 34716.7 hPa Calm     91 % 0 mm 90.0 W/m2 CLR
08:57 -12.6 °C -13.3 °C 34716.7 hPa Calm     91 % 0 mm 109.0 W/m2 CLR
09:02 -12.2 °C -13.1 °C 34716.7 hPa Calm     90 % 0 mm 111.0 W/m2 CLR
09:07 -12.2 °C -13.1 °C 34716.7 hPa Calm     90 % 0 mm 91.0 W/m2 CLR
09:12 -11.9 °C -12.8 °C 34716.7 hPa Calm     90 % 0 mm 155.0 W/m2 CLR
09:17 -11.9 °C -12.8 °C 34716.7 hPa Calm     90 % 0 mm 174.0 W/m2 CLR
09:22 -11.6 °C -12.4 °C 34716.7 hPa Calm     90 % 0 mm 190.0 W/m2 CLR
09:27 -11.3 °C -12.3 °C 34716.7 hPa Calm     89 % 0 mm 206.0 W/m2 CLR
09:32 -11 °C -12.1 °C 34716.7 hPa Calm     88 % 0 mm 223.0 W/m2 CLR
09:37 -11 °C -12.2 °C 34716.7 hPa Calm     87 % 0 mm 243.0 W/m2 CLR
09:42 -10.7 °C -11.9 °C 34716.7 hPa Calm     86 % 0 mm 258.0 W/m2 CLR
09:47 -10.4 °C -11.8 °C 34716.7 hPa Calm     84 % 0 mm 272.0 W/m2 CLR
09:53 -10.1 °C -11.6 °C 34716.7 hPa Calm     83 % 0 mm 288.0 W/m2 CLR
09:58 -9.8 °C -11.3 °C 34716.7 hPa Calm     83 % 0 mm 302.0 W/m2 CLR
10:03 -9.4 °C -11.2 °C 34716.7 hPa Calm     82 % 0 mm 320.0 W/m2 CLR
10:08 -9.1 °C -10.8 °C 34716.7 hPa Calm     82 % 0 mm 332.0 W/m2 CLR
10:13 -9.1 °C -10.8 °C 34716.7 hPa Calm     82 % 0 mm 348.0 W/m2 CLR
10:18 -8.8 °C -10.7 °C 34716.7 hPa Calm     81 % 0 mm 362.0 W/m2 CLR
10:23 -8.8 °C -10.9 °C 34716.7 hPa Calm     79 % 0 mm 378.0 W/m2 CLR
10:28 -8.5 °C -10.6 °C 34716.7 hPa Calm     79 % 0 mm 392.0 W/m2 CLR
10:33 -8.2 °C -10.2 °C 34716.7 hPa Calm     79 % 0 mm 406.0 W/m2 CLR
10:38 -8.2 °C -10.4 °C 34716.7 hPa Calm     78 % 0 mm 420.0 W/m2 CLR
10:43 -7.9 °C -10.2 °C 34716.7 hPa Calm     77 % 0 mm 434.0 W/m2 CLR
10:48 -7.9 °C -10.3 °C 34716.7 hPa Calm     76 % 0 mm 446.0 W/m2 CLR
10:53 -7.6 °C -10 °C 34716.7 hPa Calm     76 % 0 mm 459.0 W/m2 CLR
10:58 -7.6 °C -10.2 °C 34716.7 hPa Calm     74 % 0 mm 471.0 W/m2 CLR
11:03 -7.6 °C -10.3 °C 34716.7 hPa Calm     73 % 0 mm 485.0 W/m2 CLR
11:08 -7.6 °C -10.3 °C 34716.7 hPa Calm     73 % 0 mm 497.0 W/m2 CLR
11:13 -7.6 °C -10.3 °C 34716.7 hPa Calm     73 % 0 mm 508.0 W/m2 CLR
11:18 -7.3 °C -10.2 °C 34716.7 hPa Calm     72 % 0 mm 519.0 W/m2 CLR
11:23 -7 °C -9.8 °C 34716.7 hPa Calm     72 % 0 mm 531.0 W/m2 CLR
11:28 -7 °C -9.9 °C 34703.1 hPa Calm     71 % 0 mm 543.0 W/m2 CLR
11:33 -6.7 °C -9.7 °C 34716.7 hPa North 9 km/h 9 km/h 71 % 0 mm 554.0 W/m2 CLR
11:38 -6.3 °C -9.5 °C 34703.1 hPa North 10.3 km/h 10.3 km/h 70 % 0 mm 563.0 W/m2 CLR
11:43 -6.3 °C -9.6 °C 34703.1 hPa NNE 6 km/h 6 km/h 69 % 0 mm 571.0 W/m2 CLR
11:48 -6.1 °C -9.3 °C 34703.1 hPa North 15 km/h 15 km/h 69 % 0 mm 584.0 W/m2 CLR
11:49 -6.1 °C -9.4 °C 34703.1 hPa NNW 15 km/h 15 km/h 68 % 0 mm 584.0 W/m2 CLR
11:54 -6.1 °C -9.4 °C 34703.1 hPa NNE 15 km/h 15 km/h 68 % 0 mm 596.0 W/m2 CLR
11:59 -5.7 °C -9.2 °C 34703.1 hPa NNE 10.3 km/h 10.3 km/h 68 % 0 mm 603.0 W/m2 CLR
12:04 -5.7 °C -9.2 °C 34703.1 hPa North 9 km/h 9 km/h 68 % 0 mm 612.0 W/m2 CLR
12:09 -5.7 °C -9.2 °C 34703.1 hPa NNW 15 km/h 15 km/h 68 % 0 mm 622.0 W/m2 CLR
12:14 -5.4 °C -9 °C 34703.1 hPa Calm     67 % 0 mm 628.0 W/m2 CLR
12:19 -5.7 °C -9.6 °C 34693 hPa Calm     65 % 0 mm 638.0 W/m2 CLR
12:24 -5.7 °C -9.7 °C 34703.1 hPa Calm     64 % 0 mm 643.0 W/m2 CLR
12:29 -5.7 °C -9.8 °C 34693 hPa Calm     63 % 0 mm 649.0 W/m2 CLR
12:34 -5.7 °C -9.9 °C 34693 hPa Calm     62 % 0 mm 657.0 W/m2 CLR
12:39 -5.1 °C -9.2 °C 34693 hPa Calm     63 % 0 mm 668.0 W/m2 CLR
12:44 -5.1 °C -9.2 °C 34693 hPa ENE 11.9 km/h 11.9 km/h 63 % 0 mm 670.0 W/m2 CLR
12:49 -4.8 °C -8.9 °C 34693 hPa Calm     63 % 0 mm 673.0 W/m2 CLR
12:54 -4.5 °C -8.7 °C 34682.8 hPa NNW 5.1 km/h 5.1 km/h 63 % 0 mm 677.0 W/m2 CLR
12:59 -4.5 °C -8.8 °C 34682.8 hPa NNW 11.9 km/h 11.9 km/h 62 % 0 mm 684.0 W/m2 CLR
13:04 -4.8 °C -9.2 °C 34682.8 hPa WNW 11.9 km/h 11.9 km/h 61 % 0 mm 687.0 W/m2 CLR
13:09 -4.8 °C -9.2 °C 34682.8 hPa Calm     61 % 0 mm 693.0 W/m2 CLR
13:14 -4.8 °C -9.4 °C 34682.8 hPa Calm     60 % 0 mm 694.0 W/m2 CLR
13:19 -4.8 °C -9.4 °C 34682.8 hPa Calm     60 % 0 mm 700.0 W/m2 CLR
13:24 -4.5 °C -9.2 °C 34682.8 hPa Calm   0.8 km/h 59 % 0 mm 701.0 W/m2 CLR
13:29 -4.5 °C -9.4 °C 34669.3 hPa Calm     58 % 0 mm 705.0 W/m2 CLR
13:34 -4.5 °C -9.4 °C 34669.3 hPa Calm     58 % 0 mm 705.0 W/m2 CLR
13:39 -4.5 °C -9.6 °C 34669.3 hPa Calm     57 % 0 mm 707.0 W/m2 CLR
13:44 -4.2 °C -9.4 °C 34669.3 hPa Calm     56 % 0 mm 708.0 W/m2 CLR
13:49 -4.2 °C -9.6 °C 34669.3 hPa Calm     55 % 0 mm 708.0 W/m2 CLR
13:54 -4.5 °C -10.3 °C 34669.3 hPa Calm     52 % 0 mm 712.0 W/m2 CLR
13:59 -4.2 °C -10.1 °C 34659.1 hPa Calm     52 % 0 mm 708.0 W/m2 CLR
14:04 -4.2 °C -10.2 °C 34659.1 hPa NNW 20.9 km/h 20.9 km/h 51 % 0 mm 708.0 W/m2 CLR
14:09 -3.9 °C -10.4 °C 34659.1 hPa Calm     48 % 0 mm 707.0 W/m2 CLR
14:14 -3.6 °C -9.8 °C 34659.1 hPa North 12.9 km/h 12.9 km/h 50 % 0 mm 707.0 W/m2 CLR
14:19 -3.6 °C -9.9 °C 34659.1 hPa Calm     49 % 0 mm 705.0 W/m2 CLR
14:24 -3.6 °C -10.2 °C 34645.6 hPa Calm     48 % 0 mm 703.0 W/m2 CLR
14:29 -3.9 °C -10.1 °C 34645.6 hPa NNW 9 km/h 9 km/h 50 % 0 mm 700.0 W/m2 CLR
14:34 -3.6 °C -10.2 °C 34645.6 hPa Calm     48 % 0 mm 694.0 W/m2 CLR
14:39 -3.6 °C -10.3 °C 34645.6 hPa North 6 km/h 6 km/h 47 % 0 mm 693.0 W/m2 CLR
14:40 -3.6 °C -10.2 °C 34645.6 hPa Calm     48 % 0 mm 693.0 W/m2 CLR
14:45 -3.3 °C -10.6 °C 34635.4 hPa Calm     44 % 0 mm 691.0 W/m2 CLR
14:50 -3.3 °C -10.1 °C 34635.4 hPa North 12.9 km/h 12.9 km/h 47 % 0 mm 682.0 W/m2 CLR
14:55 -3.3 °C -10.1 °C 34635.4 hPa Calm     47 % 0 mm 677.0 W/m2 CLR
15:00 -3.3 °C -10.4 °C 34635.4 hPa NNE 15 km/h 15 km/h 45 % 0 mm 673.0 W/m2 CLR
15:05 -2.9 °C -9.8 °C 34635.4 hPa Calm     47 % 0 mm 666.0 W/m2 CLR
15:10 -2.9 °C -9.9 °C 34635.4 hPa WNW 9 km/h 9 km/h 46 % 0 mm 659.0 W/m2 CLR
15:15 -3.3 °C -10.6 °C 34625.2 hPa Calm     44 % 0 mm 652.0 W/m2 CLR
15:20 -2.9 °C -10.3 °C 34625.2 hPa Calm     44 % 0 mm 649.0 W/m2 CLR
15:25 -2.9 °C -10.3 °C 34625.2 hPa NNW 5.1 km/h 5.1 km/h 44 % 0 mm 642.0 W/m2 CLR
15:30 -2.9 °C -10.3 °C 34625.2 hPa NW 10.3 km/h 10.3 km/h 44 % 0 mm 636.0 W/m2 CLR
15:35 -2.9 °C -10.3 °C 34611.7 hPa North 3.1 km/h 3.1 km/h 44 % 0 mm 628.0 W/m2 CLR
15:40 -2.7 °C -10.1 °C 34611.7 hPa Calm     44 % 0 mm 619.0 W/m2 CLR
15:45 -2.7 °C -10.2 °C 34611.7 hPa Calm     43 % 0 mm 610.0 W/m2 CLR
15:50 -2.9 °C -10.7 °C 34601.5 hPa WNW 11.9 km/h 11.9 km/h 42 % 0 mm 601.0 W/m2 CLR
15:55 -2.9 °C -10.7 °C 34601.5 hPa NW 11.9 km/h 11.9 km/h 42 % 0 mm 592.0 W/m2 CLR
16:00 -2.9 °C -10.9 °C 34601.5 hPa Calm     41 % 0 mm 584.0 W/m2 CLR
16:05 -2.7 °C -10.7 °C 34601.5 hPa Calm     41 % 0 mm 575.0 W/m2 CLR
16:10 -2.7 °C -10.9 °C 34601.5 hPa NW 15 km/h 15 km/h 40 % 0 mm 566.0 W/m2 CLR
16:15 -2.3 °C -10.6 °C 34601.5 hPa Calm     40 % 0 mm 554.0 W/m2 CLR
16:20 -2.3 °C -10.8 °C 34591.4 hPa Calm     39 % 0 mm 540.0 W/m2 CLR
16:25 -2.7 °C -10.9 °C 34591.4 hPa WNW 3.1 km/h 3.1 km/h 40 % 0 mm 529.0 W/m2 CLR
16:30 -2.3 °C -10.8 °C 34591.4 hPa Calm     39 % 0 mm 517.0 W/m2 CLR
16:35 -2.3 °C -10.8 °C 34591.4 hPa NNW 7.7 km/h 7.7 km/h 39 % 0 mm 504.0 W/m2 CLR
16:40 -2.1 °C -10.7 °C 34591.4 hPa Calm     38 % 0 mm 492.0 W/m2 CLR
16:45 -2.1 °C -10.7 °C 34591.4 hPa NNW 11.9 km/h 11.9 km/h 38 % 0 mm 478.0 W/m2 CLR
16:50 -2.3 °C -11 °C 34577.8 hPa WNW 17.9 km/h 17.9 km/h 38 % 0 mm 466.0 W/m2 CLR
16:55 -2.3 °C -11 °C 34577.8 hPa Calm     38 % 0 mm 454.0 W/m2 CLR
17:00 -2.3 °C -11 °C 34577.8 hPa WNW 11.9 km/h 11.9 km/h 38 % 0 mm 438.0 W/m2 CLR
17:05 -2.7 °C -11.3 °C 34577.8 hPa WNW 9 km/h 9 km/h 38 % 0 mm 427.0 W/m2 CLR
17:10 -2.7 °C -11.5 °C 34577.8 hPa Calm     37 % 0 mm 411.0 W/m2 CLR
17:15 -2.7 °C -11.5 °C 34577.8 hPa NNW 10.3 km/h 10.3 km/h 37 % 0 mm 396.0 W/m2 CLR
17:20 -2.7 °C -11.8 °C 34577.8 hPa North 11.9 km/h 11.9 km/h 36 % 0 mm 381.0 W/m2 CLR
17:25 -2.7 °C -11.8 °C 34577.8 hPa Calm     36 % 0 mm 366.0 W/m2 CLR
17:30 -2.7 °C -11.8 °C 34567.7 hPa Calm     36 % 0 mm 353.0 W/m2 CLR
17:35 -2.3 °C -11.5 °C 34567.7 hPa Calm     36 % 0 mm 339.0 W/m2 CLR
17:40 -2.3 °C -11.5 °C 34567.7 hPa Calm     36 % 0 mm 325.0 W/m2 CLR
17:45 -2.7 °C -11.8 °C 34567.7 hPa Calm     36 % 0 mm 309.0 W/m2 CLR
17:50 -2.7 °C -11.3 °C 34567.7 hPa NNW 6 km/h 6 km/h 38 % 0 mm 294.0 W/m2 CLR
18:05 -2.9 °C -9.9 °C 34567.7 hPa NE 26.9 km/h 26.9 km/h 46 % 0 mm 244.0 W/m2 CLR
18:10 -3.3 °C -9.9 °C 34567.7 hPa North 23.8 km/h 23.8 km/h 48 % 0 mm 227.0 W/m2 CLR
18:15 -3.3 °C -9.5 °C 34567.7 hPa North 15 km/h 15 km/h 50 % 0 mm 209.0 W/m2 CLR
18:20 -3.3 °C -9.5 °C 34567.7 hPa NE 23.8 km/h 23.8 km/h 50 % 0 mm 192.0 W/m2 CLR
18:25 -3.6 °C -9.6 °C 34567.7 hPa NE 23.8 km/h 23.8 km/h 51 % 0 mm 174.0 W/m2 CLR
18:30 -3.6 °C -9.6 °C 34567.7 hPa NE 26.9 km/h 26.9 km/h 51 % 0 mm 155.0 W/m2 CLR
18:35 -3.6 °C -9.5 °C 34567.7 hPa NNE 15 km/h 15 km/h 52 % 0 mm 139.0 W/m2 CLR
18:40 -3.9 °C -9.8 °C 34567.7 hPa NE 23.8 km/h 23.8 km/h 52 % 0 mm 121.0 W/m2 CLR
18:45 -3.9 °C -9.6 °C 34577.8 hPa NE 23.8 km/h 23.8 km/h 53 % 0 mm 105.0 W/m2 CLR
18:50 -4.2 °C -9.9 °C 34577.8 hPa NNE 23.8 km/h 23.8 km/h 53 % 0 mm 90.0 W/m2 CLR
18:55 -4.2 °C -9.7 °C 34577.8 hPa NNE 17.9 km/h 17.9 km/h 54 % 0 mm 69.0 W/m2 FEW
19:00 -4.2 °C -9.6 °C 34577.8 hPa NE 17.9 km/h 17.9 km/h 55 % 0 mm 56.0 W/m2 SCT
19:05 -4.5 °C -9.8 °C 34577.8 hPa NE 17.9 km/h 17.9 km/h 55 % 0 mm 49.0 W/m2 SCT
19:11 -4.5 °C -9.7 °C 34577.8 hPa ENE 15 km/h 15 km/h 56 % 0 mm 35.0 W/m2 BKN
19:16 -4.8 °C -9.8 °C 34577.8 hPa NNE 15 km/h 15 km/h 57 % 0 mm 26.0 W/m2 BKN
19:21 -4.8 °C -9.7 °C 34577.8 hPa NE 9 km/h 9 km/h 58 % 0 mm 19.0 W/m2 BKN
19:26 -5.1 °C -9.9 °C 34577.8 hPa NE 11.9 km/h 11.9 km/h 58 % 0 mm 16.0 W/m2 BKN
19:31 -5.4 °C -10.1 °C 34577.8 hPa NE 6 km/h 6 km/h 59 % 0 mm 11.0 W/m2 BKN
19:36 -5.4 °C -9.9 °C 34577.8 hPa Calm     60 % 0 mm 7.0 W/m2 BKN
19:41 -5.7 °C -10.1 °C 34577.8 hPa Calm     61 % 0 mm 5.0 W/m2 OVC
19:46 -6.1 °C -10.4 °C 34577.8 hPa Calm     61 % 0 mm 0.0 W/m2 OVC
19:51 -6.3 °C -10.6 °C 34591.4 hPa Calm     62 % 0 mm 0.0 W/m2 OVC
19:56 -6.7 °C -10.8 °C 34591.4 hPa Calm     62 % 0 mm 0.0 W/m2 CLR
20:01 -7 °C -11 °C 34591.4 hPa Calm     63 % 0 mm 0.0 W/m2 CLR
20:06 -7.3 °C -11.2 °C 34591.4 hPa Calm     64 % 0 mm 0.0 W/m2 CLR
20:11 -7.3 °C -11.2 °C 34591.4 hPa Calm     64 % 0 mm 0.0 W/m2 CLR
20:16 -7.6 °C -11.4 °C 34591.4 hPa Calm     64 % 0 mm 0.0 W/m2 CLR
20:21 -7.9 °C -11.7 °C 34591.4 hPa Calm     64 % 0 mm 0.0 W/m2 CLR
20:26 -7.9 °C -11.7 °C 34591.4 hPa East 10.3 km/h 10.3 km/h 64 % 0 mm 0.0 W/m2 CLR
20:31 -8.2 °C -12.1 °C 34591.4 hPa Calm     64 % 0 mm 0.0 W/m2 CLR
20:36 -8.2 °C -12.1 °C 34591.4 hPa Calm     64 % 0 mm 0.0 W/m2 CLR
20:41 -8.5 °C -12.3 °C 34601.5 hPa Calm     64 % 0 mm 0.0 W/m2 CLR
20:46 -8.5 °C -12.3 °C 34601.5 hPa Calm     64 % 0 mm 0.0 W/m2 CLR
20:51 -8.8 °C -12.6 °C 34601.5 hPa Calm     64 % 0 mm 0.0 W/m2 CLR
20:56 -8.8 °C -12.6 °C 34601.5 hPa East 3.1 km/h 3.1 km/h 64 % 0 mm 0.0 W/m2 CLR
21:01 -8.8 °C -12.6 °C 34611.7 hPa Calm     64 % 0 mm 0.0 W/m2 CLR
21:06 -8.8 °C -12.6 °C 34611.7 hPa Calm     64 % 0 mm 0.0 W/m2 CLR
21:11 -9.1 °C -12.7 °C 34611.7 hPa ENE 9 km/h 9 km/h 66 % 0 mm 0.0 W/m2 CLR
21:16 -9.1 °C -12.7 °C 34611.7 hPa Calm     66 % 0 mm 0.0 W/m2 CLR
21:21 -9.1 °C -12.7 °C 34611.7 hPa Calm     66 % 0 mm 0.0 W/m2 CLR
21:26 -9.4 °C -12.8 °C 34611.7 hPa NNE 5.1 km/h 5.1 km/h 67 % 0 mm 0.0 W/m2 CLR
21:31 -9.4 °C -12.8 °C 34611.7 hPa Calm     67 % 0 mm 0.0 W/m2 CLR
21:36 -9.4 °C -12.7 °C 34611.7 hPa Calm     68 % 0 mm 0.0 W/m2 CLR
21:41 -9.8 °C -12.9 °C 34611.7 hPa Calm     69 % 0 mm 0.0 W/m2 CLR
21:46 -9.8 °C -12.7 °C 34611.7 hPa Calm     70 % 0 mm 0.0 W/m2 CLR
21:51 -9.8 °C -12.7 °C 34611.7 hPa Calm     70 % 0 mm 0.0 W/m2 CLR
21:56 -9.8 °C -12.7 °C 34611.7 hPa Calm     71 % 0 mm 0.0 W/m2 CLR
22:01 -10.1 °C -12.9 °C 34625.2 hPa Calm     71 % 0 mm 0.0 W/m2 CLR
22:06 -10.1 °C -13.1 °C 34625.2 hPa Calm     70 % 0 mm 0.0 W/m2 CLR
22:11 -10.1 °C -12.9 °C 34625.2 hPa Calm     71 % 0 mm 0.0 W/m2 CLR
22:12 -10.1 °C -12.9 °C 34625.2 hPa Calm     71 % 0 mm 0.0 W/m2 CLR
22:17 -10.1 °C -12.6 °C 34625.2 hPa Calm     74 % 0 mm 0.0 W/m2 CLR
22:22 -10.1 °C -12.6 °C 34625.2 hPa Calm     74 % 0 mm 0.0 W/m2 CLR
22:27 -10.1 °C -12.8 °C 34625.2 hPa Calm     72 % 0 mm 0.0 W/m2 CLR
22:32 -10.4 °C -13 °C 34625.2 hPa Calm     73 % 0 mm 0.0 W/m2 CLR
22:37 -10.4 °C -12.9 °C 34625.2 hPa Calm     74 % 0 mm 0.0 W/m2 CLR
22:42 -10.4 °C -12.7 °C 34625.2 hPa Calm     76 % 0 mm 0.0 W/m2 CLR
22:47 -10.4 °C -12.7 °C 34625.2 hPa Calm     76 % 0 mm 0.0 W/m2 CLR
22:52 -10.4 °C -12.8 °C 34625.2 hPa Calm     75 % 0 mm 0.0 W/m2 CLR
22:57 -10.4 °C -12.8 °C 34625.2 hPa Calm     75 % 0 mm 0.0 W/m2 CLR
23:02 -10.7 °C -13.1 °C 34625.2 hPa Calm     75 % 0 mm 0.0 W/m2 CLR
23:07 -10.7 °C -13.1 °C 34625.2 hPa Calm     75 % 0 mm 0.0 W/m2 CLR
23:12 -10.7 °C -13.2 °C 34625.2 hPa Calm     74 % 0 mm 0.0 W/m2 CLR
23:17 -10.7 °C -12.9 °C 34625.2 hPa Calm     76 % 0 mm 0.0 W/m2 CLR
23:22 -10.7 °C -12.7 °C 34625.2 hPa Calm     79 % 0 mm 0.0 W/m2 CLR
23:27 -10.7 °C -12.9 °C 34625.2 hPa Calm     77 % 0 mm 0.0 W/m2 CLR
23:32 -10.7 °C -13.1 °C 34625.2 hPa Calm     75 % 0 mm 0.0 W/m2 CLR
23:37 -10.7 °C -12.9 °C 34625.2 hPa Calm     76 % 0 mm 0.0 W/m2 CLR
23:42 -11 °C -13.2 °C 34625.2 hPa Calm     77 % 0 mm 0.0 W/m2 CLR
23:47 -11 °C -13.1 °C 34635.4 hPa Calm     78 % 0 mm 0.0 W/m2 CLR
23:52 -11 °C -13.1 °C 34625.2 hPa Calm     78 % 0 mm 0.0 W/m2 CLR
Lo Temps de Massalio
Compliments of Weather Underground - 1.25 mb